sensor_id;sensor_type;location;lat;lon;timestamp;temperature;humidity
78731;SHT31;68055;51.978;5.658;2023-02-28T00:00:22;5.2;56.3
78731;SHT31;68055;51.978;5.658;2023-02-28T00:02:51;5.2;56.4
78731;SHT31;68055;51.978;5.658;2023-02-28T00:05:23;5.2;56.4
78731;SHT31;68055;51.978;5.658;2023-02-28T00:07:54;5.2;56.5
78731;SHT31;68055;51.978;5.658;2023-02-28T00:10:26;5.2;56.5
78731;SHT31;68055;51.978;5.658;2023-02-28T00:12:59;5.2;56.5
78731;SHT31;68055;51.978;5.658;2023-02-28T00:15:31;5.2;56.5
78731;SHT31;68055;51.978;5.658;2023-02-28T00:18:01;5.2;56.4
78731;SHT31;68055;51.978;5.658;2023-02-28T00:20:31;5.2;56.3
78731;SHT31;68055;51.978;5.658;2023-02-28T00:23:00;5.2;56.3
78731;SHT31;68055;51.978;5.658;2023-02-28T00:25:32;5.3;56.4
78731;SHT31;68055;51.978;5.658;2023-02-28T00:28:01;5.3;56.5
78731;SHT31;68055;51.978;5.658;2023-02-28T00:30:31;5.3;56.4
78731;SHT31;68055;51.978;5.658;2023-02-28T00:33:00;5.3;56.4
78731;SHT31;68055;51.978;5.658;2023-02-28T00:35:30;5.4;56.4
78731;SHT31;68055;51.978;5.658;2023-02-28T00:37:59;5.4;56.3
78731;SHT31;68055;51.978;5.658;2023-02-28T00:40:30;5.4;56.2
78731;SHT31;68055;51.978;5.658;2023-02-28T00:42:59;5.5;56.1
78731;SHT31;68055;51.978;5.658;2023-02-28T00:45:29;5.5;56.0
78731;SHT31;68055;51.978;5.658;2023-02-28T00:47:59;5.6;55.9
78731;SHT31;68055;51.978;5.658;2023-02-28T00:50:30;5.6;55.8
78731;SHT31;68055;51.978;5.658;2023-02-28T00:53:00;5.6;55.8
78731;SHT31;68055;51.978;5.658;2023-02-28T00:55:31;5.6;55.5
78731;SHT31;68055;51.978;5.658;2023-02-28T00:58:00;5.7;55.3
78731;SHT31;68055;51.978;5.658;2023-02-28T01:00:30;5.7;55.3
78731;SHT31;68055;51.978;5.658;2023-02-28T01:03:00;5.7;55.2
78731;SHT31;68055;51.978;5.658;2023-02-28T01:05:31;5.7;54.9
78731;SHT31;68055;51.978;5.658;2023-02-28T01:08:00;5.7;54.9
78731;SHT31;68055;51.978;5.658;2023-02-28T01:10:30;5.8;55.0
78731;SHT31;68055;51.978;5.658;2023-02-28T01:13:00;5.8;54.8
78731;SHT31;68055;51.978;5.658;2023-02-28T01:15:30;5.8;55.0
78731;SHT31;68055;51.978;5.658;2023-02-28T01:18:00;5.8;54.9
78731;SHT31;68055;51.978;5.658;2023-02-28T01:20:29;5.9;54.8
78731;SHT31;68055;51.978;5.658;2023-02-28T01:22:59;5.9;54.9
78731;SHT31;68055;51.978;5.658;2023-02-28T01:25:28;5.9;55.0
78731;SHT31;68055;51.978;5.658;2023-02-28T01:27:58;5.9;55.2
78731;SHT31;68055;51.978;5.658;2023-02-28T01:30:28;5.9;55.2
78731;SHT31;68055;51.978;5.658;2023-02-28T01:32:58;5.9;55.2
78731;SHT31;68055;51.978;5.658;2023-02-28T01:35:27;6.0;55.1
78731;SHT31;68055;51.978;5.658;2023-02-28T01:37:58;6.0;55.1
78731;SHT31;68055;51.978;5.658;2023-02-28T01:40:28;6.0;55.0
78731;SHT31;68055;51.978;5.658;2023-02-28T01:42:58;6.0;55.1
78731;SHT31;68055;51.978;5.658;2023-02-28T01:45:29;6.0;55.0
78731;SHT31;68055;51.978;5.658;2023-02-28T01:48:03;6.0;55.0
78731;SHT31;68055;51.978;5.658;2023-02-28T01:50:37;6.0;54.8
78731;SHT31;68055;51.978;5.658;2023-02-28T01:53:13;6.0;54.9
78731;SHT31;68055;51.978;5.658;2023-02-28T01:55:48;6.1;54.9
78731;SHT31;68055;51.978;5.658;2023-02-28T01:58:21;6.1;54.7
78731;SHT31;68055;51.978;5.658;2023-02-28T02:00:51;6.1;54.6
78731;SHT31;68055;51.978;5.658;2023-02-28T02:03:21;6.1;54.5
78731;SHT31;68055;51.978;5.658;2023-02-28T02:05:50;6.1;54.4
78731;SHT31;68055;51.978;5.658;2023-02-28T02:08:23;6.1;54.5
78731;SHT31;68055;51.978;5.658;2023-02-28T02:10:56;6.1;54.5
78731;SHT31;68055;51.978;5.658;2023-02-28T02:13:55;6.1;54.5
78731;SHT31;68055;51.978;5.658;2023-02-28T02:16:36;6.2;54.4
78731;SHT31;68055;51.978;5.658;2023-02-28T02:19:21;6.2;54.3
78731;SHT31;68055;51.978;5.658;2023-02-28T02:26:23;6.3;53.5
78731;SHT31;68055;51.978;5.658;2023-02-28T02:29:35;6.3;53.9
78731;SHT31;68055;51.978;5.658;2023-02-28T02:32:31;6.3;53.5
78731;SHT31;68055;51.978;5.658;2023-02-28T02:35:12;6.3;53.2
78731;SHT31;68055;51.978;5.658;2023-02-28T02:37:50;6.4;53.1
78731;SHT31;68055;51.978;5.658;2023-02-28T02:40:27;6.4;53.0
78731;SHT31;68055;51.978;5.658;2023-02-28T02:43:02;6.4;53.0
78731;SHT31;68055;51.978;5.658;2023-02-28T02:45:39;6.4;52.7
78731;SHT31;68055;51.978;5.658;2023-02-28T02:48:14;6.4;52.5
78731;SHT31;68055;51.978;5.658;2023-02-28T02:50:48;6.5;52.4
78731;SHT31;68055;51.978;5.658;2023-02-28T02:53:24;6.5;52.7
78731;SHT31;68055;51.978;5.658;2023-02-28T02:56:01;6.5;52.6
78731;SHT31;68055;51.978;5.658;2023-02-28T02:58:37;6.5;52.6
78731;SHT31;68055;51.978;5.658;2023-02-28T03:01:14;6.5;52.7
78731;SHT31;68055;51.978;5.658;2023-02-28T03:03:45;6.5;52.4
78731;SHT31;68055;51.978;5.658;2023-02-28T03:06:14;6.5;52.7
78731;SHT31;68055;51.978;5.658;2023-02-28T03:08:44;6.5;52.8
78731;SHT31;68055;51.978;5.658;2023-02-28T03:11:14;6.5;52.7
78731;SHT31;68055;51.978;5.658;2023-02-28T03:14:12;6.5;53.0
78731;SHT31;68055;51.978;5.658;2023-02-28T03:17:03;6.5;52.7
78731;SHT31;68055;51.978;5.658;2023-02-28T03:19:47;6.5;53.0
78731;SHT31;68055;51.978;5.658;2023-02-28T03:22:32;6.5;52.7
78731;SHT31;68055;51.978;5.658;2023-02-28T03:25:09;6.5;52.8
78731;SHT31;68055;51.978;5.658;2023-02-28T03:27:47;6.5;53.2
78731;SHT31;68055;51.978;5.658;2023-02-28T03:30:27;6.5;53.2
78731;SHT31;68055;51.978;5.658;2023-02-28T03:33:03;6.5;53.0
78731;SHT31;68055;51.978;5.658;2023-02-28T03:35:39;6.5;53.0
78731;SHT31;68055;51.978;5.658;2023-02-28T03:38:14;6.5;53.3
78731;SHT31;68055;51.978;5.658;2023-02-28T03:40:49;6.5;52.9
78731;SHT31;68055;51.978;5.658;2023-02-28T03:43:24;6.5;52.1
78731;SHT31;68055;51.978;5.658;2023-02-28T03:45:56;6.5;52.2
78731;SHT31;68055;51.978;5.658;2023-02-28T03:48:32;6.5;51.6
78731;SHT31;68055;51.978;5.658;2023-02-28T03:51:08;6.5;51.7
78731;SHT31;68055;51.978;5.658;2023-02-28T03:53:44;6.5;51.9
78731;SHT31;68055;51.978;5.658;2023-02-28T03:56:18;6.5;50.6
78731;SHT31;68055;51.978;5.658;2023-02-28T03:58:57;6.5;51.0
78731;SHT31;68055;51.978;5.658;2023-02-28T04:01:35;6.5;50.9
78731;SHT31;68055;51.978;5.658;2023-02-28T04:04:09;6.5;50.1
78731;SHT31;68055;51.978;5.658;2023-02-28T04:06:39;6.5;50.0
78731;SHT31;68055;51.978;5.658;2023-02-28T04:09:11;6.4;49.7
78731;SHT31;68055;51.978;5.658;2023-02-28T04:11:43;6.4;49.3
78731;SHT31;68055;51.978;5.658;2023-02-28T04:14:13;6.4;49.3
78731;SHT31;68055;51.978;5.658;2023-02-28T04:16:44;6.4;48.8
78731;SHT31;68055;51.978;5.658;2023-02-28T04:19:14;6.4;49.0
78731;SHT31;68055;51.978;5.658;2023-02-28T04:21:45;6.4;49.3
78731;SHT31;68055;51.978;5.658;2023-02-28T04:24:17;6.3;49.4
78731;SHT31;68055;51.978;5.658;2023-02-28T04:26:49;6.3;49.5
78731;SHT31;68055;51.978;5.658;2023-02-28T04:29:22;6.3;49.9
78731;SHT31;68055;51.978;5.658;2023-02-28T04:31:52;6.2;50.4
78731;SHT31;68055;51.978;5.658;2023-02-28T04:34:24;6.2;50.3
78731;SHT31;68055;51.978;5.658;2023-02-28T04:36:55;6.2;50.7
78731;SHT31;68055;51.978;5.658;2023-02-28T04:39:24;6.2;51.0
78731;SHT31;68055;51.978;5.658;2023-02-28T04:41:54;6.2;50.5
78731;SHT31;68055;51.978;5.658;2023-02-28T04:44:24;6.2;50.7
78731;SHT31;68055;51.978;5.658;2023-02-28T04:46:54;6.2;51.1
78731;SHT31;68055;51.978;5.658;2023-02-28T04:49:23;6.2;50.9
78731;SHT31;68055;51.978;5.658;2023-02-28T04:51:53;6.2;50.1
78731;SHT31;68055;51.978;5.658;2023-02-28T04:54:24;6.2;50.6
78731;SHT31;68055;51.978;5.658;2023-02-28T04:56:53;6.2;51.0
78731;SHT31;68055;51.978;5.658;2023-02-28T04:59:23;6.2;50.4
78731;SHT31;68055;51.978;5.658;2023-02-28T05:01:52;6.2;50.9
78731;SHT31;68055;51.978;5.658;2023-02-28T05:04:24;6.2;51.3
78731;SHT31;68055;51.978;5.658;2023-02-28T05:06:55;6.2;50.9
78731;SHT31;68055;51.978;5.658;2023-02-28T05:09:24;6.2;51.0
78731;SHT31;68055;51.978;5.658;2023-02-28T05:11:55;6.2;51.2
78731;SHT31;68055;51.978;5.658;2023-02-28T05:14:25;6.3;51.4
78731;SHT31;68055;51.978;5.658;2023-02-28T05:16:54;6.3;51.8
78731;SHT31;68055;51.978;5.658;2023-02-28T05:19:24;6.3;51.9
78731;SHT31;68055;51.978;5.658;2023-02-28T05:21:55;6.3;51.3
78731;SHT31;68055;51.978;5.658;2023-02-28T05:24:24;6.3;51.3
78731;SHT31;68055;51.978;5.658;2023-02-28T05:26:54;6.3;51.3
78731;SHT31;68055;51.978;5.658;2023-02-28T05:29:25;6.4;51.4
78731;SHT31;68055;51.978;5.658;2023-02-28T05:31:56;6.4;51.7
78731;SHT31;68055;51.978;5.658;2023-02-28T05:34:26;6.4;51.7
78731;SHT31;68055;51.978;5.658;2023-02-28T05:36:55;6.4;51.8
78731;SHT31;68055;51.978;5.658;2023-02-28T05:39:25;6.4;51.5
78731;SHT31;68055;51.978;5.658;2023-02-28T05:41:54;6.4;51.4
78731;SHT31;68055;51.978;5.658;2023-02-28T05:44:24;6.4;51.4
78731;SHT31;68055;51.978;5.658;2023-02-28T05:46:53;6.5;51.5
78731;SHT31;68055;51.978;5.658;2023-02-28T05:49:23;6.5;51.4
78731;SHT31;68055;51.978;5.658;2023-02-28T05:51:53;6.5;51.7
78731;SHT31;68055;51.978;5.658;2023-02-28T05:54:22;6.5;51.5
78731;SHT31;68055;51.978;5.658;2023-02-28T05:56:52;6.5;51.3
78731;SHT31;68055;51.978;5.658;2023-02-28T05:59:21;6.5;51.4
78731;SHT31;68055;51.978;5.658;2023-02-28T06:01:51;6.6;51.6
78731;SHT31;68055;51.978;5.658;2023-02-28T06:04:21;6.6;52.0
78731;SHT31;68055;51.978;5.658;2023-02-28T06:06:51;6.6;51.3
78731;SHT31;68055;51.978;5.658;2023-02-28T06:09:20;6.6;51.3
78731;SHT31;68055;51.978;5.658;2023-02-28T06:11:50;6.6;51.2
78731;SHT31;68055;51.978;5.658;2023-02-28T06:14:20;6.7;50.5
78731;SHT31;68055;51.978;5.658;2023-02-28T06:16:50;6.7;50.7
78731;SHT31;68055;51.978;5.658;2023-02-28T06:19:19;6.7;50.5
78731;SHT31;68055;51.978;5.658;2023-02-28T06:21:51;6.7;51.0
78731;SHT31;68055;51.978;5.658;2023-02-28T06:24:22;6.7;51.0
78731;SHT31;68055;51.978;5.658;2023-02-28T06:26:55;6.7;50.4
78731;SHT31;68055;51.978;5.658;2023-02-28T06:29:26;6.7;50.8
78731;SHT31;68055;51.978;5.658;2023-02-28T06:31:55;6.7;50.9
78731;SHT31;68055;51.978;5.658;2023-02-28T06:34:25;6.7;49.9
78731;SHT31;68055;51.978;5.658;2023-02-28T06:36:54;6.7;50.2
78731;SHT31;68055;51.978;5.658;2023-02-28T06:39:24;6.7;50.6
78731;SHT31;68055;51.978;5.658;2023-02-28T06:41:53;6.8;50.2
78731;SHT31;68055;51.978;5.658;2023-02-28T06:44:24;6.8;50.8
78731;SHT31;68055;51.978;5.658;2023-02-28T06:46:53;6.8;51.1
78731;SHT31;68055;51.978;5.658;2023-02-28T06:49:25;6.8;50.8
78731;SHT31;68055;51.978;5.658;2023-02-28T06:51:54;6.8;50.7
78731;SHT31;68055;51.978;5.658;2023-02-28T06:54:24;6.8;50.5
78731;SHT31;68055;51.978;5.658;2023-02-28T06:56:53;6.8;50.0
78731;SHT31;68055;51.978;5.658;2023-02-28T06:59:26;6.8;49.9
78731;SHT31;68055;51.978;5.658;2023-02-28T07:01:56;6.8;49.7
78731;SHT31;68055;51.978;5.658;2023-02-28T07:04:25;6.8;49.9
78731;SHT31;68055;51.978;5.658;2023-02-28T07:06:55;6.8;49.9
78731;SHT31;68055;51.978;5.658;2023-02-28T07:09:25;6.7;49.8
78731;SHT31;68055;51.978;5.658;2023-02-28T07:11:57;6.7;49.5
78731;SHT31;68055;51.978;5.658;2023-02-28T07:14:27;6.7;49.7
78731;SHT31;68055;51.978;5.658;2023-02-28T07:16:57;6.7;49.6
78731;SHT31;68055;51.978;5.658;2023-02-28T07:19:27;6.7;50.2
78731;SHT31;68055;51.978;5.658;2023-02-28T07:21:56;6.7;50.5
78731;SHT31;68055;51.978;5.658;2023-02-28T07:24:26;6.7;50.2
78731;SHT31;68055;51.978;5.658;2023-02-28T07:26:57;6.7;49.9
78731;SHT31;68055;51.978;5.658;2023-02-28T07:29:27;6.7;49.3
78731;SHT31;68055;51.978;5.658;2023-02-28T07:31:56;6.8;49.3
78731;SHT31;68055;51.978;5.658;2023-02-28T07:34:26;6.8;48.8
78731;SHT31;68055;51.978;5.658;2023-02-28T07:36:55;6.8;49.6
78731;SHT31;68055;51.978;5.658;2023-02-28T07:39:25;6.8;48.4
78731;SHT31;68055;51.978;5.658;2023-02-28T07:41:54;6.8;48.7
78731;SHT31;68055;51.978;5.658;2023-02-28T07:44:24;6.8;47.9
78731;SHT31;68055;51.978;5.658;2023-02-28T07:46:53;6.8;48.6
78731;SHT31;68055;51.978;5.658;2023-02-28T07:49:23;6.8;47.6
78731;SHT31;68055;51.978;5.658;2023-02-28T07:51:52;6.9;47.2
78731;SHT31;68055;51.978;5.658;2023-02-28T07:54:22;6.9;46.9
78731;SHT31;68055;51.978;5.658;2023-02-28T07:56:51;6.9;46.3
78731;SHT31;68055;51.978;5.658;2023-02-28T07:59:20;6.9;46.4
78731;SHT31;68055;51.978;5.658;2023-02-28T08:01:50;6.9;46.3
78731;SHT31;68055;51.978;5.658;2023-02-28T08:04:20;6.9;46.0
78731;SHT31;68055;51.978;5.658;2023-02-28T08:06:50;7.0;46.5
78731;SHT31;68055;51.978;5.658;2023-02-28T08:09:20;7.0;46.6
78731;SHT31;68055;51.978;5.658;2023-02-28T08:11:50;7.1;45.9
78731;SHT31;68055;51.978;5.658;2023-02-28T08:14:19;7.2;45.1
78731;SHT31;68055;51.978;5.658;2023-02-28T08:16:49;7.4;42.9
78731;SHT31;68055;51.978;5.658;2023-02-28T08:19:18;7.6;38.8
78731;SHT31;68055;51.978;5.658;2023-02-28T08:21:48;7.8;38.9
78731;SHT31;68055;51.978;5.658;2023-02-28T08:24:17;8.0;38.1
78731;SHT31;68055;51.978;5.658;2023-02-28T08:26:49;8.3;36.1
78731;SHT31;68055;51.978;5.658;2023-02-28T08:29:18;8.5;33.9
78731;SHT31;68055;51.978;5.658;2023-02-28T08:31:48;8.7;35.0
78731;SHT31;68055;51.978;5.658;2023-02-28T08:34:17;8.8;35.2
78731;SHT31;68055;51.978;5.658;2023-02-28T08:36:47;8.9;34.2
78731;SHT31;68055;51.978;5.658;2023-02-28T08:39:19;8.9;32.8
78731;SHT31;68055;51.978;5.658;2023-02-28T08:41:49;8.9;32.5
78731;SHT31;68055;51.978;5.658;2023-02-28T08:44:18;8.9;32.3
78731;SHT31;68055;51.978;5.658;2023-02-28T08:46:48;8.9;33.1
78731;SHT31;68055;51.978;5.658;2023-02-28T08:49:17;8.9;32.2
78731;SHT31;68055;51.978;5.658;2023-02-28T08:51:47;8.9;33.0
78731;SHT31;68055;51.978;5.658;2023-02-28T08:54:16;9.0;32.2
78731;SHT31;68055;51.978;5.658;2023-02-28T08:56:47;9.2;32.7
78731;SHT31;68055;51.978;5.658;2023-02-28T08:59:16;9.4;32.3
78731;SHT31;68055;51.978;5.658;2023-02-28T09:01:46;9.6;31.2
78731;SHT31;68055;51.978;5.658;2023-02-28T09:04:17;9.7;31.7
78731;SHT31;68055;51.978;5.658;2023-02-28T09:06:47;9.9;30.6
78731;SHT31;68055;51.978;5.658;2023-02-28T09:09:17;9.9;29.9
78731;SHT31;68055;51.978;5.658;2023-02-28T09:11:46;10.0;29.8
78731;SHT31;68055;51.978;5.658;2023-02-28T09:14:16;9.9;29.7
78731;SHT31;68055;51.978;5.658;2023-02-28T09:16:47;9.8;29.3
78731;SHT31;68055;51.978;5.658;2023-02-28T09:19:16;9.7;29.6
78731;SHT31;68055;51.978;5.658;2023-02-28T09:21:46;9.6;30.8
78731;SHT31;68055;51.978;5.658;2023-02-28T09:24:15;9.5;30.1
78731;SHT31;68055;51.978;5.658;2023-02-28T09:26:45;9.4;29.1
78731;SHT31;68055;51.978;5.658;2023-02-28T09:29:15;9.3;29.1
78731;SHT31;68055;51.978;5.658;2023-02-28T09:31:44;9.1;28.6
78731;SHT31;68055;51.978;5.658;2023-02-28T09:34:16;9.0;29.6
78731;SHT31;68055;51.978;5.658;2023-02-28T09:36:47;8.9;29.8
78731;SHT31;68055;51.978;5.658;2023-02-28T09:39:20;8.9;30.1
78731;SHT31;68055;51.978;5.658;2023-02-28T09:41:52;8.8;30.3
78731;SHT31;68055;51.978;5.658;2023-02-28T09:44:28;8.7;29.3
78731;SHT31;68055;51.978;5.658;2023-02-28T09:47:05;8.7;29.9
78731;SHT31;68055;51.978;5.658;2023-02-28T09:49:40;8.6;30.5
78731;SHT31;68055;51.978;5.658;2023-02-28T09:52:17;8.6;30.5
78731;SHT31;68055;51.978;5.658;2023-02-28T09:54:47;8.5;31.3
78731;SHT31;68055;51.978;5.658;2023-02-28T09:57:29;8.5;30.7
78731;SHT31;68055;51.978;5.658;2023-02-28T10:00:06;8.5;29.7
78731;SHT31;68055;51.978;5.658;2023-02-28T10:02:52;8.4;31.0
78731;SHT31;68055;51.978;5.658;2023-02-28T10:05:28;8.4;29.8
78731;SHT31;68055;51.978;5.658;2023-02-28T10:08:05;8.4;30.3
78731;SHT31;68055;51.978;5.658;2023-02-28T10:10:40;8.3;29.9
78731;SHT31;68055;51.978;5.658;2023-02-28T10:13:25;8.3;30.8
78731;SHT31;68055;51.978;5.658;2023-02-28T10:16:02;8.2;30.4
78731;SHT31;68055;51.978;5.658;2023-02-28T10:18:42;8.2;30.1
78731;SHT31;68055;51.978;5.658;2023-02-28T10:21:20;8.2;30.4
78731;SHT31;68055;51.978;5.658;2023-02-28T10:23:56;8.2;30.5
78731;SHT31;68055;51.978;5.658;2023-02-28T10:26:29;8.1;31.2
78731;SHT31;68055;51.978;5.658;2023-02-28T10:29:01;8.1;31.7
78731;SHT31;68055;51.978;5.658;2023-02-28T10:31:33;8.1;31.8
78731;SHT31;68055;51.978;5.658;2023-02-28T10:34:02;8.1;31.5
78731;SHT31;68055;51.978;5.658;2023-02-28T10:36:33;8.1;32.7
78731;SHT31;68055;51.978;5.658;2023-02-28T10:39:35;8.1;32.0
78731;SHT31;68055;51.978;5.658;2023-02-28T10:42:23;8.1;30.9
78731;SHT31;68055;51.978;5.658;2023-02-28T10:45:11;8.1;32.1
78731;SHT31;68055;51.978;5.658;2023-02-28T10:47:53;8.1;31.5
78731;SHT31;68055;51.978;5.658;2023-02-28T10:50:58;8.1;32.2
78731;SHT31;68055;51.978;5.658;2023-02-28T10:53:33;8.1;32.4
78731;SHT31;68055;51.978;5.658;2023-02-28T10:56:06;8.1;32.6
78731;SHT31;68055;51.978;5.658;2023-02-28T10:58:47;8.1;32.0
78731;SHT31;68055;51.978;5.658;2023-02-28T11:01:21;8.1;31.0
78731;SHT31;68055;51.978;5.658;2023-02-28T11:03:52;8.1;32.6
78731;SHT31;68055;51.978;5.658;2023-02-28T11:06:25;8.1;32.9
78731;SHT31;68055;51.978;5.658;2023-02-28T11:08:57;8.1;31.9
78731;SHT31;68055;51.978;5.658;2023-02-28T11:11:30;8.2;32.4
78731;SHT31;68055;51.978;5.658;2023-02-28T11:14:06;8.2;31.8
78731;SHT31;68055;51.978;5.658;2023-02-28T11:16:37;8.2;31.8
78731;SHT31;68055;51.978;5.658;2023-02-28T11:19:18;8.2;32.4
78731;SHT31;68055;51.978;5.658;2023-02-28T11:21:53;8.2;32.5
78731;SHT31;68055;51.978;5.658;2023-02-28T11:24:28;8.2;32.5
78731;SHT31;68055;51.978;5.658;2023-02-28T11:26:59;8.2;32.3
78731;SHT31;68055;51.978;5.658;2023-02-28T11:29:30;8.2;32.0
78731;SHT31;68055;51.978;5.658;2023-02-28T11:32:07;8.2;32.4
78731;SHT31;68055;51.978;5.658;2023-02-28T11:34:41;8.2;32.0
78731;SHT31;68055;51.978;5.658;2023-02-28T11:37:18;8.2;33.0
78731;SHT31;68055;51.978;5.658;2023-02-28T11:39:48;8.2;31.9
78731;SHT31;68055;51.978;5.658;2023-02-28T11:42:43;8.2;32.1
78731;SHT31;68055;51.978;5.658;2023-02-28T11:45:23;8.2;32.9
78731;SHT31;68055;51.978;5.658;2023-02-28T11:48:04;8.2;33.0
78731;SHT31;68055;51.978;5.658;2023-02-28T11:50:49;8.3;32.5
78731;SHT31;68055;51.978;5.658;2023-02-28T11:53:35;8.3;32.8
78731;SHT31;68055;51.978;5.658;2023-02-28T11:56:16;8.3;32.5
78731;SHT31;68055;51.978;5.658;2023-02-28T11:58:57;8.3;32.1
78731;SHT31;68055;51.978;5.658;2023-02-28T12:01:51;8.3;32.7
78731;SHT31;68055;51.978;5.658;2023-02-28T12:04:29;8.4;31.9
78731;SHT31;68055;51.978;5.658;2023-02-28T12:07:09;8.4;32.3
78731;SHT31;68055;51.978;5.658;2023-02-28T12:09:56;8.4;32.1
78731;SHT31;68055;51.978;5.658;2023-02-28T12:12:41;8.5;32.4
78731;SHT31;68055;51.978;5.658;2023-02-28T12:15:35;8.5;32.5
78731;SHT31;68055;51.978;5.658;2023-02-28T12:18:23;8.5;30.8
78731;SHT31;68055;51.978;5.658;2023-02-28T12:21:04;8.5;31.5
78731;SHT31;68055;51.978;5.658;2023-02-28T12:24:17;8.5;31.2
78731;SHT31;68055;51.978;5.658;2023-02-28T12:26:54;8.5;30.9
78731;SHT31;68055;51.978;5.658;2023-02-28T12:29:28;8.5;31.3
78731;SHT31;68055;51.978;5.658;2023-02-28T12:32:05;8.5;31.2
78731;SHT31;68055;51.978;5.658;2023-02-28T12:34:39;8.5;30.2
78731;SHT31;68055;51.978;5.658;2023-02-28T12:37:19;8.5;31.2
78731;SHT31;68055;51.978;5.658;2023-02-28T12:40:00;8.5;31.3
78731;SHT31;68055;51.978;5.658;2023-02-28T12:42:38;8.6;30.5
78731;SHT31;68055;51.978;5.658;2023-02-28T12:45:13;8.6;32.2
78731;SHT31;68055;51.978;5.658;2023-02-28T12:47:50;8.6;30.5
78731;SHT31;68055;51.978;5.658;2023-02-28T12:50:23;8.6;31.3
78731;SHT31;68055;51.978;5.658;2023-02-28T12:52:59;8.6;30.8
78731;SHT31;68055;51.978;5.658;2023-02-28T12:55:38;8.7;30.6
78731;SHT31;68055;51.978;5.658;2023-02-28T12:58:19;8.7;30.8
78731;SHT31;68055;51.978;5.658;2023-02-28T13:01:13;8.7;29.9
78731;SHT31;68055;51.978;5.658;2023-02-28T13:04:02;8.7;30.4
78731;SHT31;68055;51.978;5.658;2023-02-28T13:06:49;8.7;30.1
78731;SHT31;68055;51.978;5.658;2023-02-28T13:09:22;8.8;29.9
78731;SHT31;68055;51.978;5.658;2023-02-28T13:11:54;8.8;30.2
78731;SHT31;68055;51.978;5.658;2023-02-28T13:14:28;8.8;30.0
78731;SHT31;68055;51.978;5.658;2023-02-28T13:17:03;8.8;30.1
78731;SHT31;68055;51.978;5.658;2023-02-28T13:19:40;8.8;30.5
78731;SHT31;68055;51.978;5.658;2023-02-28T13:22:20;8.8;30.3
78731;SHT31;68055;51.978;5.658;2023-02-28T13:24:51;8.8;29.3
78731;SHT31;68055;51.978;5.658;2023-02-28T13:27:40;8.8;29.8
78731;SHT31;68055;51.978;5.658;2023-02-28T13:33:28;8.8;29.4
78731;SHT31;68055;51.978;5.658;2023-02-28T13:36:25;8.8;30.1
78731;SHT31;68055;51.978;5.658;2023-02-28T13:38:58;8.8;30.1
78731;SHT31;68055;51.978;5.658;2023-02-28T13:41:47;8.9;29.1
78731;SHT31;68055;51.978;5.658;2023-02-28T13:44:19;8.9;29.5
78731;SHT31;68055;51.978;5.658;2023-02-28T13:47:27;8.9;30.7
78731;SHT31;68055;51.978;5.658;2023-02-28T13:50:21;8.9;29.6
78731;SHT31;68055;51.978;5.658;2023-02-28T13:53:07;8.9;29.3
78731;SHT31;68055;51.978;5.658;2023-02-28T13:55:48;8.9;29.8
78731;SHT31;68055;51.978;5.658;2023-02-28T13:58:41;8.9;29.7
78731;SHT31;68055;51.978;5.658;2023-02-28T14:01:31;8.9;29.5
78731;SHT31;68055;51.978;5.658;2023-02-28T14:05:36;8.9;29.8
78731;SHT31;68055;51.978;5.658;2023-02-28T14:08:15;9.0;29.4
78731;SHT31;68055;51.978;5.658;2023-02-28T14:10:48;9.0;29.7
78731;SHT31;68055;51.978;5.658;2023-02-28T14:13:41;9.0;29.1
78731;SHT31;68055;51.978;5.658;2023-02-28T14:16:17;9.0;30.0
78731;SHT31;68055;51.978;5.658;2023-02-28T14:18:55;9.0;29.6
78731;SHT31;68055;51.978;5.658;2023-02-28T14:21:27;9.0;30.5
78731;SHT31;68055;51.978;5.658;2023-02-28T14:24:15;9.0;30.2
78731;SHT31;68055;51.978;5.658;2023-02-28T14:27:41;9.0;29.7
78731;SHT31;68055;51.978;5.658;2023-02-28T14:31:03;9.0;30.1
78731;SHT31;68055;51.978;5.658;2023-02-28T14:33:45;9.0;30.0
78731;SHT31;68055;51.978;5.658;2023-02-28T14:36:20;9.0;30.0
78731;SHT31;68055;51.978;5.658;2023-02-28T14:38:54;9.0;29.8
78731;SHT31;68055;51.978;5.658;2023-02-28T14:41:31;9.1;29.8
78731;SHT31;68055;51.978;5.658;2023-02-28T14:44:16;9.1;30.2
78731;SHT31;68055;51.978;5.658;2023-02-28T14:46:49;9.1;29.2
78731;SHT31;68055;51.978;5.658;2023-02-28T14:49:23;9.1;30.0
78731;SHT31;68055;51.978;5.658;2023-02-28T14:52:06;9.1;30.0
78731;SHT31;68055;51.978;5.658;2023-02-28T14:54:39;9.1;29.1
78731;SHT31;68055;51.978;5.658;2023-02-28T14:57:22;9.1;30.6
78731;SHT31;68055;51.978;5.658;2023-02-28T14:59:59;9.1;30.3
78731;SHT31;68055;51.978;5.658;2023-02-28T15:02:34;9.1;30.3
78731;SHT31;68055;51.978;5.658;2023-02-28T15:05:22;9.1;29.6
78731;SHT31;68055;51.978;5.658;2023-02-28T15:08:03;9.1;29.4
78731;SHT31;68055;51.978;5.658;2023-02-28T15:10:34;9.1;29.6
78731;SHT31;68055;51.978;5.658;2023-02-28T15:13:06;9.1;29.8
78731;SHT31;68055;51.978;5.658;2023-02-28T15:15:45;9.1;29.6
78731;SHT31;68055;51.978;5.658;2023-02-28T15:18:26;9.1;29.5
78731;SHT31;68055;51.978;5.658;2023-02-28T15:20:57;9.1;30.2
78731;SHT31;68055;51.978;5.658;2023-02-28T15:23:29;9.1;29.8
78731;SHT31;68055;51.978;5.658;2023-02-28T15:26:00;9.1;30.0
78731;SHT31;68055;51.978;5.658;2023-02-28T15:28:30;9.1;29.7
78731;SHT31;68055;51.978;5.658;2023-02-28T15:31:02;9.0;29.7
78731;SHT31;68055;51.978;5.658;2023-02-28T15:33:33;9.0;30.5
78731;SHT31;68055;51.978;5.658;2023-02-28T15:36:13;9.0;30.5
78731;SHT31;68055;51.978;5.658;2023-02-28T15:38:51;9.0;30.3
78731;SHT31;68055;51.978;5.658;2023-02-28T15:41:27;9.0;30.1
78731;SHT31;68055;51.978;5.658;2023-02-28T15:44:18;9.0;31.1
78731;SHT31;68055;51.978;5.658;2023-02-28T15:46:59;9.0;31.2
78731;SHT31;68055;51.978;5.658;2023-02-28T15:49:40;9.0;30.3
78731;SHT31;68055;51.978;5.658;2023-02-28T15:52:17;9.0;31.1
78731;SHT31;68055;51.978;5.658;2023-02-28T15:54:48;9.1;30.8
78731;SHT31;68055;51.978;5.658;2023-02-28T15:57:22;9.1;30.1
78731;SHT31;68055;51.978;5.658;2023-02-28T15:59:55;9.1;30.8
78731;SHT31;68055;51.978;5.658;2023-02-28T16:02:33;9.0;30.3
78731;SHT31;68055;51.978;5.658;2023-02-28T16:05:21;9.0;30.1
78731;SHT31;68055;51.978;5.658;2023-02-28T16:07:56;9.0;30.6
78731;SHT31;68055;51.978;5.658;2023-02-28T16:10:28;9.0;30.8
78731;SHT31;68055;51.978;5.658;2023-02-28T16:12:58;9.0;30.6
78731;SHT31;68055;51.978;5.658;2023-02-28T16:15:33;9.0;30.4
78731;SHT31;68055;51.978;5.658;2023-02-28T16:18:10;9.0;30.4
78731;SHT31;68055;51.978;5.658;2023-02-28T16:20:41;9.0;30.6
78731;SHT31;68055;51.978;5.658;2023-02-28T16:23:12;9.0;31.0
78731;SHT31;68055;51.978;5.658;2023-02-28T16:25:43;9.0;30.4
78731;SHT31;68055;51.978;5.658;2023-02-28T16:28:19;8.9;30.7
78731;SHT31;68055;51.978;5.658;2023-02-28T16:30:51;8.9;31.1
78731;SHT31;68055;51.978;5.658;2023-02-28T16:33:20;8.9;30.6
78731;SHT31;68055;51.978;5.658;2023-02-28T16:35:50;8.9;30.8
78731;SHT31;68055;51.978;5.658;2023-02-28T16:38:20;8.9;31.1
78731;SHT31;68055;51.978;5.658;2023-02-28T16:40:53;8.9;30.4
78731;SHT31;68055;51.978;5.658;2023-02-28T16:43:26;8.9;30.9
78731;SHT31;68055;51.978;5.658;2023-02-28T16:45:57;8.9;31.5
78731;SHT31;68055;51.978;5.658;2023-02-28T16:48:28;8.9;31.4
78731;SHT31;68055;51.978;5.658;2023-02-28T16:50:58;8.9;31.7
78731;SHT31;68055;51.978;5.658;2023-02-28T16:53:28;8.9;31.7
78731;SHT31;68055;51.978;5.658;2023-02-28T16:55:59;8.8;31.5
78731;SHT31;68055;51.978;5.658;2023-02-28T16:58:30;8.8;32.3
78731;SHT31;68055;51.978;5.658;2023-02-28T17:01:03;8.8;31.7
78731;SHT31;68055;51.978;5.658;2023-02-28T17:03:32;8.8;31.7
78731;SHT31;68055;51.978;5.658;2023-02-28T17:06:04;8.7;31.6
78731;SHT31;68055;51.978;5.658;2023-02-28T17:08:33;8.7;31.6
78731;SHT31;68055;51.978;5.658;2023-02-28T17:11:03;8.7;31.9
78731;SHT31;68055;51.978;5.658;2023-02-28T17:13:33;8.7;31.3